Latest Weather Observations for Low Head

IDT60801

Issued at 7:05 pm EST Saturday 26 July 2014 (issued every 30 minutes, with the page automatically refreshed every 10 minutes)

About weather observations | Map of weather stations | Latest weather observations for TAS | Other Formats
Station Details ID: 091293 Name: LOW HEAD Lat: -41.05 Lon: 146.79 Height: 3.0 m
Data from the previous 72 hours. | See also: Recent months at Low Head
Date/Time
EST
Temp
°C
App
Temp
°C
Dew
Point
Rel
Hum
%
Delta-T
°C
Wind Press
QNH
hPa
Press
MSL
hPa
Rain
since 9 am
mm
Dir
 
Spd
km/h
Gust
km/h
Spd
kts
Gust
kts
26/07:00pm 12.1 8.6 10.9 92 0.6 WSW 20 24 11 13 1020.6 - 0.0
26/06:30pm 12.2 8.0 11.0 92 0.6 W 24 30 13 16 1020.4 - 0.0
26/06:00pm 12.2 8.3 10.9 92 0.7 WSW 22 26 12 14 1020.1 1020.1 0.0
26/05:30pm 12.3 8.8 11.0 92 0.7 W 20 22 11 12 1019.8 - 0.0
26/05:00pm 12.5 9.0 11.0 90 0.8 W 20 24 11 13 1019.6 - 0.0
26/04:30pm 12.7 9.5 11.2 91 0.8 W 19 20 10 11 1019.2 - 0.0
26/04:00pm 12.7 9.8 11.0 89 0.9 W 17 20 9 11 1019.2 - 0.0
26/03:30pm 13.0 11.2 10.9 87 1.1 W 11 13 6 7 1019.0 - 0.0
26/03:00pm 14.0 12.0 11.4 84 1.4 NW 13 15 7 8 1019.1 1019.1 0.0
26/02:30pm 13.8 11.7 11.1 84 1.4 N 13 15 7 8 1018.9 - 0.0
26/02:00pm 14.5 13.2 11.1 80 1.8 NNW 9 9 5 5 1018.7 - 0.0
26/01:30pm 14.3 13.0 11.1 81 1.7 NNW 9 9 5 5 1018.7 - 0.0
26/01:00pm 13.7 11.9 11.0 84 1.4 N 11 13 6 7 1019.0 - 0.0
26/12:30pm 13.3 11.5 10.8 85 1.3 S 11 15 6 8 1019.3 - 0.0
26/12:00pm 12.7 10.4 10.6 87 1.1 SSE 13 15 7 8 1019.7 1019.7 0.0
26/11:30am 11.7 8.9 10.1 90 0.8 S 15 17 8 9 1020.0 - 0.0
26/11:00am 11.4 8.9 9.8 90 0.8 S 13 17 7 9 1020.1 - 0.0
26/10:30am 10.8 9.1 9.8 93 0.5 SSE 9 13 5 7 1020.1 - 0.0
26/10:00am 10.6 8.4 9.2 91 0.7 SE 11 15 6 8 1020.1 - 0.0
26/09:30am 10.1 7.0 8.7 91 0.7 SSE 15 19 8 10 1020.2 - 0.0
26/09:00am 9.8 5.8 8.4 91 0.7 SSE 19 20 10 11 1020.0 1020.0 1.8
26/08:30am 9.4 5.2 8.4 93 0.5 S 20 24 11 13 1019.9 - 1.8
26/08:00am 9.2 5.6 8.2 93 0.5 SSE 17 24 9 13 1019.7 - 1.8
26/07:30am 9.1 4.9 8.3 95 0.4 SSE 20 26 11 14 1019.6 - 1.8
26/07:00am 9.3 5.8 8.7 96 0.3 SSE 17 22 9 12 1019.4 - 1.8
26/06:30am 9.5 6.3 8.5 93 0.5 SSE 15 19 8 10 1019.3 - 1.8
26/06:00am 9.5 6.0 8.7 95 0.4 SSE 17 20 9 11 1019.0 1018.9 1.8
26/05:30am 9.5 6.4 8.9 96 0.3 SSE 15 19 8 10 1018.8 - 1.8
26/05:00am 9.6 6.9 9.0 96 0.3 SSE 13 15 7 8 1018.6 - 1.8
26/04:30am 9.5 6.7 8.7 95 0.4 SSE 13 17 7 9 1018.3 - 1.8
26/04:00am 9.4 5.9 8.8 96 0.3 SSE 17 22 9 12 1018.4 - 1.6
26/03:30am 9.3 6.2 8.7 96 0.3 SSE 15 19 8 10 1018.3 - 1.6
26/03:00am 9.7 6.7 9.1 96 0.3 SSE 15 17 8 9 1018.3 1018.3 1.4
26/02:30am 9.8 6.8 9.2 96 0.3 SSE 15 19 8 10 1018.3 - 1.4
26/02:00am 9.4 7.0 8.8 96 0.3 SE 11 13 6 7 1018.2 - 1.4
26/01:30am 9.6 6.5 9.0 96 0.3 SSE 15 17 8 9 1018.4 - 1.2
26/01:00am 9.8 7.1 8.8 93 0.5 SSE 13 15 7 8 1018.5 - 1.2
26/12:30am 9.7 7.0 8.9 95 0.4 SE 13 17 7 9 1018.3 - 1.2
26/12:00am 10.0 7.4 9.2 95 0.4 SSE 13 13 7 7 1018.4 1018.4 1.2
 
Date/Time
EST
Temp
°C
App
Temp
°C
Dew
Point
Rel
Hum
%
Delta-T
°C
Wind Press
QNH
hPa
Press
MSL
hPa
Rain
since 9 am
mm
Dir
 
Spd
km/h
Gust
km/h
Spd
kts
Gust
kts
25/11:30pm 10.4 8.3 9.6 95 0.4 SSE 11 15 6 8 1018.4 - 1.2
25/11:00pm 10.8 10.0 9.8 93 0.5 SE 4 9 2 5 1018.4 - 1.2
25/10:30pm 10.9 8.8 9.9 93 0.5 SE 11 13 6 7 1018.4 - 1.2
25/10:00pm 11.1 9.1 10.3 95 0.4 SE 11 13 6 7 1018.4 - 1.2
25/09:30pm 10.9 9.2 9.7 92 0.6 SSE 9 11 5 6 1018.3 - 1.2
25/09:00pm 11.6 9.3 10.6 94 0.5 E 13 17 7 9 1018.0 1018.0 1.2
25/08:30pm 12.2 10.5 11.2 94 0.5 E 11 15 6 8 1018.2 - 0.8
25/08:00pm 12.1 11.1 10.9 92 0.6 ESE 7 13 4 7 1018.0 - 0.2
25/07:30pm 11.6 9.7 10.6 94 0.5 SSE 11 13 6 7 1017.7 - 0.0
25/07:00pm 11.7 10.2 10.5 92 0.6 SE 9 13 5 7 1017.6 - 0.0
25/06:30pm 12.1 10.2 10.5 90 0.8 SE 11 13 6 7 1017.1 - 0.0
25/06:00pm 11.7 9.7 10.3 91 0.7 SSE 11 13 6 7 1016.9 1016.9 0.0
25/05:30pm 12.0 10.5 10.4 90 0.8 SSE 9 11 5 6 1016.7 - 0.0
25/05:00pm 12.8 11.8 10.9 88 1.0 ESE 7 9 4 5 1016.4 - 0.0
25/04:30pm 12.8 11.8 10.9 88 1.0 SSE 7 11 4 6 1016.3 - 0.0
25/04:00pm 13.3 12.2 10.8 85 1.3 SSE 7 9 4 5 1016.1 - 0.0
25/03:30pm 12.9 11.4 10.6 86 1.2 SSE 9 13 5 7 1016.0 - 0.0
25/03:00pm 12.6 11.1 10.5 87 1.1 SSE 9 11 5 6 1015.8 1015.8 0.0
25/02:30pm 12.4 11.0 10.9 90 0.8 SE 9 13 5 7 1015.5 - 0.0
25/02:00pm 13.0 11.2 10.7 86 1.2 SE 11 15 6 8 1015.4 - 0.0
25/01:30pm 12.4 10.3 9.9 85 1.3 SSE 11 15 6 8 1015.6 - 0.0
25/01:00pm 11.8 9.2 9.2 84 1.3 SSE 13 20 7 11 1015.8 - 0.0
25/12:30pm 11.6 8.5 9.0 84 1.3 SSE 15 20 8 11 1016.0 - 0.0
25/12:00pm 10.9 6.7 8.4 84 1.2 SSE 20 24 11 13 1016.3 1016.4 0.0
25/11:30am 10.5 5.5 8.2 86 1.1 S 24 28 13 15 1016.8 - 0.0
25/11:00am 10.0 5.3 7.9 87 1.0 SSE 22 28 12 15 1017.1 - 0.0
25/10:30am 9.8 5.5 7.7 87 1.0 SSE 20 26 11 14 1017.2 - 0.0
25/10:00am 9.5 4.8 7.6 88 0.9 SSE 22 28 12 15 1017.0 - 0.0
25/09:30am 8.9 4.5 7.2 89 0.8 SSE 20 26 11 14 1017.1 - 0.0
25/09:00am 8.5 3.6 7.0 90 0.7 SSE 22 28 12 15 1016.9 1016.9 0.0
25/08:30am 8.5 3.6 7.0 90 0.7 S 22 28 12 15 1016.7 - 0.0
25/08:00am 8.5 3.2 7.0 90 0.7 S 24 28 13 15 1016.5 - 0.0
25/07:30am 8.3 3.0 6.8 90 0.7 S 24 30 13 16 1016.5 - 0.0
25/07:00am 8.4 3.5 6.9 90 0.7 S 22 30 12 16 1016.3 - 0.0
25/06:30am 8.0 3.0 6.5 90 0.7 SSE 22 26 12 14 1016.1 - 0.0
25/06:00am 8.3 3.4 6.8 90 0.7 S 22 28 12 15 1015.9 1015.9 0.0
25/05:30am 8.0 3.4 6.5 90 0.7 SSE 20 24 11 13 1015.8 - 0.0
25/05:00am 8.1 3.7 6.6 90 0.7 SSE 19 22 10 12 1015.7 - 0.0
25/04:30am 8.2 4.2 6.5 89 0.8 SSE 17 22 9 12 1015.8 - 0.0
25/04:00am 8.5 3.9 6.5 87 0.9 SSE 20 26 11 14 1015.7 - 0.0
25/03:30am 8.5 3.6 6.8 89 0.8 SSE 22 30 12 16 1015.6 - 0.0
25/03:00am 8.5 3.5 6.5 87 0.9 SSE 22 28 12 15 1015.7 1015.7 0.0
25/02:30am 8.5 3.1 6.5 87 0.9 SSE 24 28 13 15 1015.8 - 0.0
25/02:00am 8.6 3.3 6.7 88 0.9 SSE 24 30 13 16 1015.9 - 0.0
25/01:30am 8.5 3.6 6.8 89 0.8 SSE 22 28 12 15 1015.9 - 0.0
25/01:00am 9.1 4.2 7.0 87 1.0 SSE 22 28 12 15 1016.0 - 0.0
25/12:30am 9.1 4.5 6.7 85 1.1 SSE 20 26 11 14 1016.2 - 0.0
25/12:00am 9.4 4.9 7.1 85 1.1 SSE 20 30 11 16 1016.0 1016.0 0.0
 
Date/Time
EST
Temp
°C
App
Temp
°C
Dew
Point
Rel
Hum
%
Delta-T
°C
Wind Press
QNH
hPa
Press
MSL
hPa
Rain
since 9 am
mm
Dir
 
Spd
km/h
Gust
km/h
Spd
kts
Gust
kts
24/11:30pm 9.5 5.2 7.2 85 1.1 SSE 19 20 10 11 1016.4 - 0.0
24/11:00pm 9.6 5.3 7.0 84 1.2 SSE 19 24 10 13 1016.7 - 0.0
24/10:30pm 10.1 6.2 7.1 81 1.4 SSE 17 22 9 12 1016.7 - 0.0
24/10:00pm 10.3 6.0 7.1 80 1.5 SSE 19 22 10 12 1016.9 - 0.0
24/09:30pm 10.3 6.0 7.1 80 1.5 SSE 19 22 10 12 1016.9 - 0.0
24/09:00pm 10.3 6.0 7.1 80 1.5 SSE 19 24 10 13 1016.9 1016.9 0.0
24/08:30pm 10.5 6.0 7.1 79 1.6 SSE 20 26 11 14 1016.8 - 0.0
24/08:00pm 10.7 6.2 7.1 78 1.7 SSE 20 28 11 15 1016.9 - 0.0
24/07:30pm 10.6 5.8 7.2 79 1.6 SSE 22 28 12 15 1016.8 - 0.0
24/07:00pm 10.7 6.2 7.1 78 1.7 SSE 20 28 11 15 1016.7 - 0.0
24/06:30pm 10.9 6.5 7.3 78 1.7 SSE 20 28 11 15 1016.7 - 0.0
24/06:00pm 11.0 6.7 7.7 80 1.6 SSE 20 26 11 14 1016.7 1016.7 0.0
24/05:30pm 11.4 7.1 7.7 78 1.8 SSE 20 28 11 15 1016.7 - 0.0
24/05:00pm 11.5 7.2 8.0 79 1.7 SSE 20 28 11 15 1016.4 - 0.0
24/04:30pm 11.8 7.5 7.9 77 1.9 SSE 20 26 11 14 1016.4 - 0.0
24/04:00pm 12.0 8.7 7.9 76 2.0 SE 15 20 8 11 1016.3 - 0.0
24/03:30pm 12.3 9.8 8.0 75 2.1 SE 11 17 6 9 1016.3 - 0.0
24/03:00pm 13.1 10.2 8.3 72 2.4 SSE 13 17 7 9 1016.5 1016.5 0.0
24/02:30pm 12.8 9.1 7.9 72 2.4 SSE 17 22 9 12 1016.6 - 0.0
24/02:00pm 12.2 8.1 7.7 74 2.2 SSE 19 24 10 13 1016.7 - 0.0
24/01:30pm 11.7 7.3 7.6 76 2.0 SSE 20 28 11 15 1017.0 - 0.0
24/01:00pm 11.3 6.4 7.1 75 2.0 SSE 22 30 12 16 1017.3 - 0.0
24/12:30pm 10.5 4.8 6.7 77 1.8 SSE 26 32 14 17 1017.8 - 0.0
24/12:00pm 10.3 4.5 6.4 77 1.8 S 26 32 14 17 1018.2 1018.3 0.0
24/11:30am 9.5 3.7 6.2 80 1.5 SSE 26 33 14 18 1018.8 - 0.0
24/11:00am 8.8 2.6 6.2 84 1.2 S 28 33 15 18 1019.0 - 0.0
24/10:30am 8.3 2.0 5.9 85 1.1 S 28 33 15 18 1019.2 - 0.0
24/10:00am 7.8 1.5 5.6 86 1.0 S 28 33 15 18 1019.6 - 0.0
24/09:30am 7.5 1.2 5.5 87 0.9 S 28 33 15 18 1019.6 - 0.0
24/09:00am 7.2 0.8 5.2 87 0.9 S 28 33 15 18 1019.6 1019.6 0.2
24/08:30am 7.1 0.7 5.3 88 0.8 S 28 33 15 18 1019.7 - 0.2
24/08:00am 6.9 0.5 5.1 88 0.8 S 28 33 15 18 1019.6 - 0.2
24/07:30am 6.7 0.6 4.9 88 0.8 SSE 26 32 14 17 1019.5 - 0.2
24/07:00am 6.7 0.2 4.9 88 0.8 S 28 32 15 17 1019.3 - 0.2
24/06:30am 6.8 0.7 5.0 88 0.8 S 26 32 14 17 1019.2 - 0.2
24/06:00am 6.8 0.3 4.7 86 0.9 S 28 32 15 17 1019.1 1019.1 0.2
24/05:30am 6.8 0.4 5.0 88 0.8 S 28 32 15 17 1019.1 - 0.2
24/05:00am 6.7 0.6 4.9 88 0.8 S 26 30 14 16 1019.2 - 0.2
24/04:30am 6.7 1.0 5.1 89 0.7 S 24 32 13 17 1019.3 - 0.2
24/04:00am 6.7 1.1 5.3 91 0.6 SSE 24 30 13 16 1019.5 - 0.2
24/03:30am 6.7 1.5 5.3 91 0.6 S 22 30 12 16 1019.5 - 0.2
24/03:00am 6.8 1.6 5.4 91 0.6 S 22 28 12 15 1019.8 1019.8 0.2
24/02:30am 6.9 1.8 5.8 93 0.5 S 22 28 12 15 1020.0 - 0.2
24/02:00am 7.0 1.8 5.7 91 0.6 S 22 28 12 15 1020.0 - 0.2
24/01:30am 6.8 2.0 5.7 93 0.5 SSE 20 24 11 13 1020.0 - 0.2
24/01:00am 7.0 2.3 5.9 93 0.5 SSE 20 24 11 13 1020.2 - 0.2
24/12:30am 6.9 2.8 6.0 94 0.4 SSE 17 20 9 11 1020.4 - 0.2
24/12:00am 6.8 2.7 6.1 95 0.3 SSE 17 20 9 11 1020.8 1020.8 0.2
 
Date/Time
EST
Temp
°C
App
Temp
°C
Dew
Point
Rel
Hum
%
Delta-T
°C
Wind Press
QNH
hPa
Press
MSL
hPa
Rain
since 9 am
mm
Dir
 
Spd
km/h
Gust
km/h
Spd
kts
Gust
kts
23/11:30pm 6.5 2.3 5.6 94 0.4 SSE 17 20 9 11 1021.2 - 0.2
23/11:00pm 6.6 2.4 5.9 95 0.3 SSE 17 19 9 10 1021.3 - 0.2
23/10:30pm 6.5 2.7 5.8 95 0.3 SSE 15 17 8 9 1021.5 - 0.2
23/10:00pm 6.6 2.8 5.7 94 0.4 SSE 15 17 8 9 1021.7 - 0.2
23/09:30pm 6.8 3.0 5.7 93 0.5 SSE 15 17 8 9 1021.8 - 0.2
23/09:00pm 7.0 3.3 6.1 94 0.4 SSE 15 17 8 9 1021.8 1021.8 0.2
23/08:30pm 7.1 3.3 6.0 93 0.5 SSE 15 15 8 8 1021.8 - 0.2
23/08:00pm 7.6 4.2 6.0 90 0.7 SSE 13 15 7 8 1021.7 - 0.2
23/07:30pm 9.0 5.8 6.8 86 1.0 ESE 13 15 7 8 1021.6 - 0.2

Other Formats:

Comma delimited format used in spreadsheet applications
http://www.bom.gov.au/fwo/IDT60801/IDT60801.95964.axf

JavaScript Object Notation format (JSON) in row-major order
http://www.bom.gov.au/fwo/IDT60801/IDT60801.95964.json